Time;durP1;ratioP1;P1;durP2;ratioP2;P2;SDS_P1;SDS_P2;PMS_P1;PMS_P2;Temp;Humidity;BMP_temperature;BMP_pressure;BME280_temperature;BME280_humidity;BME280_pressure;Samples;Min_cycle;Max_cycle;Signal;HPM_P1;HPM_P2
2022/12/31 00:01:49;;;;;;;2.40;1.30;;;9.50;1.00;;;;;;8327179;28;20228;-65
2022/12/31 00:05:50;;;;;;;1.47;1.20;;;9.50;1.00;;;;;;8332921;28;20190;-66
2022/12/31 00:09:51;;;;;;;2.30;1.30;;;9.40;1.00;;;;;;8331392;28;20244;-65
2022/12/31 00:13:52;;;;;;;2.73;1.37;;;9.40;1.00;;;;;;8328533;28;20205;-67
2022/12/31 00:17:53;;;;;;;2.27;1.47;;;9.40;1.00;;;;;;8329559;28;20221;-66
2022/12/31 00:21:54;;;;;;;1.90;1.37;;;9.50;1.00;;;;;;8329259;28;20212;-66
2022/12/31 00:25:54;;;;;;;1.90;1.50;;;9.50;1.00;;;;;;8332518;28;20191;-66
2022/12/31 00:29:55;;;;;;;1.33;1.03;;;9.60;1.00;;;;;;8325226;28;20342;-66
2022/12/31 00:33:57;;;;;;;1.87;1.50;;;9.60;1.00;;;;;;8331598;28;20214;-67
2022/12/31 00:37:58;;;;;;;1.60;1.20;;;9.70;1.00;;;;;;8327795;28;20217;-66
2022/12/31 00:41:58;;;;;;;2.73;1.40;;;9.70;1.00;;;;;;8328496;28;20195;-66
2022/12/31 00:46:00;;;;;;;2.23;1.40;;;9.60;99.90;;;;;;8332114;28;20195;-67
2022/12/31 00:50:01;;;;;;;1.73;1.20;;;9.50;99.90;;;;;;8329515;28;20197;-66
2022/12/31 00:54:02;;;;;;;2.17;1.50;;;9.40;1.00;;;;;;8326251;28;20226;-66
2022/12/31 00:58:03;;;;;;;1.60;1.30;;;9.30;1.00;;;;;;8327664;28;20234;-67
2022/12/31 01:02:03;;;;;;;3.27;1.47;;;9.30;1.00;;;;;;8324334;28;20194;-66
2022/12/31 01:06:05;;;;;;;1.93;1.60;;;9.30;1.00;;;;;;8330774;28;20183;-65
2022/12/31 01:10:06;;;;;;;2.37;1.40;;;9.40;1.00;;;;;;8342916;28;20231;-66
2022/12/31 01:14:13;;;;;;;8.10;1.87;;;9.60;99.90;;;;;;8327102;28;20190;-65
2022/12/31 01:18:14;;;;;;;2.90;1.50;;;9.60;99.90;;;;;;8324314;28;20483;-66
2022/12/31 01:22:15;;;;;;;2.70;1.73;;;9.60;99.90;;;;;;8336919;28;20290;-66
2022/12/31 01:26:17;;;;;;;2.40;1.70;;;9.70;99.90;;;;;;8325753;28;20205;-65
2022/12/31 01:30:18;;;;;;;2.27;1.63;;;9.70;99.90;;;;;;8326200;28;20195;-65
2022/12/31 01:34:19;;;;;;;2.87;1.57;;;9.70;99.90;;;;;;8324564;28;20218;-65
2022/12/31 01:38:19;;;;;;;2.60;2.00;;;9.70;99.90;;;;;;8325535;28;20404;-67
2022/12/31 01:42:20;;;;;;;2.27;1.80;;;9.60;99.90;;;;;;8324444;28;20289;-67
2022/12/31 01:46:39;;;;;;;3.07;1.93;;;9.50;99.90;;;;;;8323384;28;20781;-66
2022/12/31 01:50:42;;;;;;;2.03;1.60;;;9.30;1.00;;;;;;8328517;28;20210;-66
2022/12/31 01:55:00;;;;;;;2.17;1.70;;;9.20;1.00;;;;;;8324962;28;20438;-66
2022/12/31 01:59:05;;;;;;;2.60;1.90;;;9.10;1.00;;;;;;8334074;28;20209;-66
2022/12/31 02:03:07;;;;;;;2.17;1.67;;;9.10;1.00;;;;;;8322814;28;20240;-67
2022/12/31 02:07:09;;;;;;;1.73;1.40;;;9.00;1.00;;;;;;8323755;28;20183;-66
2022/12/31 02:11:31;;;;;;;1.90;1.63;;;9.00;1.00;;;;;;8323473;28;20186;-67
2022/12/31 02:16:00;;;;;;;1.83;1.70;;;8.90;1.70;;;;;;8326682;28;20189;-67
2022/12/31 02:20:06;;;;;;;2.43;1.77;;;9.00;15.40;;;;;;8320346;28;20297;-66
2022/12/31 02:24:45;;;;;;;2.20;1.90;;;9.00;11.40;;;;;;8330859;28;20191;-66
2022/12/31 02:29:04;;;;;;;2.90;1.83;;;9.10;1.00;;;;;;8322166;28;20186;-67
2022/12/31 02:33:12;;;;;;;2.03;1.80;;;9.20;1.00;;;;;;8327461;28;20234;-65
2022/12/31 02:37:14;;;;;;;2.60;2.00;;;9.20;1.00;;;;;;8332641;28;20210;-66
2022/12/31 02:45:52;;;;;;;2.17;1.63;;;9.20;1.00;;;;;;8325266;28;20263;-68
2022/12/31 02:50:04;;;;;;;2.33;1.80;;;9.20;4.30;;;;;;8325591;28;20225;-67
2022/12/31 02:54:35;;;;;;;4.13;1.70;;;9.20;10.80;;;;;;8323096;28;20198;-66
2022/12/31 03:03:28;;;;;;;3.57;1.80;;;9.40;1.00;;;;;;8324171;28;20249;-66
2022/12/31 03:07:31;;;;;;;2.60;1.67;;;9.50;1.00;;;;;;8321827;28;20202;-66
2022/12/31 03:15:51;;;;;;;1.97;1.50;;;9.50;1.00;;;;;;8321975;28;20206;-67
2022/12/31 03:28:30;;;;;;;1.37;1.23;;;9.80;9.00;;;;;;8327056;28;20194;-67
2022/12/31 03:32:31;;;;;;;2.43;1.33;;;9.80;51.10;;;;;;8324744;28;20191;-66
2022/12/31 03:36:31;;;;;;;1.70;1.40;;;9.80;60.50;;;;;;8319819;28;20212;-66
2022/12/31 03:40:39;;;;;;;1.93;1.30;;;9.80;99.90;;;;;;8324540;28;20215;-67
2022/12/31 03:44:40;;;;;;;2.47;1.30;;;9.80;99.90;;;;;;8325490;28;20196;-67
2022/12/31 03:48:41;;;;;;;1.60;1.23;;;9.80;99.90;;;;;;8327959;28;20200;-68
2022/12/31 03:52:42;;;;;;;2.30;1.47;;;9.80;99.90;;;;;;8328627;28;20179;-67
2022/12/31 03:56:43;;;;;;;2.23;1.43;;;9.70;99.90;;;;;;8332889;28;20210;-68
2022/12/31 04:00:44;;;;;;;1.30;1.20;;;9.60;99.90;;;;;;8322594;28;20208;-67
2022/12/31 04:04:44;;;;;;;1.40;1.30;;;9.70;99.90;;;;;;8326160;28;20188;-67
2022/12/31 04:08:45;;;;;;;1.70;1.40;;;9.70;99.90;;;;;;8331124;28;20190;-67
2022/12/31 04:12:46;;;;;;;2.47;1.37;;;9.70;99.90;;;;;;8327605;28;20194;-67
2022/12/31 04:16:47;;;;;;;1.73;1.37;;;9.70;99.90;;;;;;8321994;28;20200;-68
2022/12/31 04:20:48;;;;;;;2.27;1.57;;;9.60;99.90;;;;;;8326295;28;20305;-68
2022/12/31 04:24:49;;;;;;;2.37;1.30;;;9.50;99.90;;;;;;8322161;28;20210;-67
2022/12/31 04:28:49;;;;;;;1.33;1.10;;;9.50;99.90;;;;;;8328706;28;20186;-67
2022/12/31 04:32:50;;;;;;;1.47;1.13;;;9.50;99.90;;;;;;8335793;28;20251;-67
2022/12/31 04:36:51;;;;;;;2.70;1.37;;;9.50;99.90;;;;;;8321114;28;20212;-66
2022/12/31 04:45:11;;;;;;;2.00;1.00;;;9.80;99.90;;;;;;8324682;28;20426;-67
2022/12/31 04:49:12;;;;;;;1.60;1.30;;;9.90;99.90;;;;;;8330875;28;20197;-68
2022/12/31 04:53:12;;;;;;;1.00;0.73;;;9.90;99.90;;;;;;8333908;28;20320;-68
2022/12/31 04:57:13;;;;;;;2.13;1.43;;;9.90;99.90;;;;;;8327068;28;20192;-68
2022/12/31 05:01:14;;;;;;;1.43;1.10;;;9.90;99.90;;;;;;8330955;28;20233;-68
2022/12/31 05:05:15;;;;;;;0.90;0.80;;;9.80;99.90;;;;;;8323717;28;20193;-68
2022/12/31 05:09:16;;;;;;;1.77;1.10;;;9.80;99.90;;;;;;8328824;28;21350;-68
2022/12/31 05:13:17;;;;;;;2.03;1.10;;;9.80;99.90;;;;;;8324490;28;20282;-67
2022/12/31 05:17:19;;;;;;;3.93;1.10;;;9.80;99.90;;;;;;8327401;28;20217;-68
2022/12/31 05:21:21;;;;;;;2.40;1.80;;;9.80;99.90;;;;;;8324093;28;20218;-68
2022/12/31 05:25:22;;;;;;;2.33;1.67;;;9.70;99.90;;;;;;8344044;28;20210;-68
2022/12/31 05:29:22;;;;;;;2.47;1.57;;;9.50;99.90;;;;;;8324560;28;20215;-67
2022/12/31 05:33:23;;;;;;;1.90;1.40;;;9.40;99.90;;;;;;8342241;28;20207;-67
2022/12/31 05:37:26;;;;;;;2.47;1.60;;;9.30;99.90;;;;;;8327809;28;20282;-66
2022/12/31 05:41:27;;;;;;;2.03;1.33;;;9.20;99.90;;;;;;8341668;28;20297;-67
2022/12/31 05:45:28;;;;;;;1.67;1.40;;;9.10;99.90;;;;;;8325417;28;20182;-67
2022/12/31 05:49:28;;;;;;;2.20;1.60;;;9.00;99.90;;;;;;8328475;28;20208;-67
2022/12/31 05:53:29;;;;;;;1.97;1.57;;;8.90;99.90;;;;;;8326718;28;20192;-66
2022/12/31 05:57:30;;;;;;;2.17;1.50;;;8.80;99.90;;;;;;8325727;28;20207;-67
2022/12/31 06:01:31;;;;;;;1.80;1.60;;;8.70;1.00;;;;;;8325936;28;20205;-68
2022/12/31 06:05:31;;;;;;;2.07;1.57;;;8.70;1.00;;;;;;8328953;28;20208;-67
2022/12/31 06:09:32;;;;;;;2.23;1.60;;;8.60;1.00;;;;;;8327883;28;20254;-68
2022/12/31 06:13:33;;;;;;;2.17;1.90;;;8.70;1.00;;;;;;8335445;28;20191;-68
2022/12/31 06:17:34;;;;;;;2.43;1.93;;;8.70;26.20;;;;;;8322971;28;20259;-67
2022/12/31 06:21:35;;;;;;;2.23;2.03;;;8.70;1.00;;;;;;8327253;28;20325;-67
2022/12/31 06:25:36;;;;;;;3.60;2.20;;;8.70;1.00;;;;;;8327065;28;20183;-67
2022/12/31 06:29:37;;;;;;;2.37;2.13;;;8.80;1.00;;;;;;8325285;28;20226;-68
2022/12/31 06:33:37;;;;;;;2.90;2.30;;;8.80;1.00;;;;;;8322474;28;20207;-68
2022/12/31 06:37:38;;;;;;;1.87;1.50;;;9.00;1.00;;;;;;8325780;28;20198;-67
2022/12/31 06:41:39;;;;;;;2.30;1.80;;;9.10;1.00;;;;;;8320464;28;20215;-68
2022/12/31 06:45:40;;;;;;;1.70;1.50;;;9.20;1.00;;;;;;8325563;28;20325;-68
2022/12/31 06:49:40;;;;;;;1.70;1.60;;;9.40;1.00;;;;;;8324660;28;20182;-68
2022/12/31 06:53:41;;;;;;;1.60;1.47;;;9.50;1.00;;;;;;8317098;28;20295;-67
2022/12/31 06:57:42;;;;;;;2.53;1.60;;;9.70;1.00;;;;;;8323985;28;20249;-67
2022/12/31 07:02:02;;;;;;;1.57;1.30;;;9.80;1.00;;;;;;8320975;28;20210;-68
2022/12/31 07:06:16;;;;;;;1.33;1.10;;;9.90;1.00;;;;;;8319718;28;20192;-68
2022/12/31 07:10:46;;;;;;;1.07;0.77;;;10.10;1.00;;;;;;8325012;28;20188;-68
2022/12/31 07:15:13;;;;;;;1.40;1.20;;;10.30;1.00;;;;;;8304257;28;20255;-68
2022/12/31 07:19:39;;;;;;;1.87;1.10;;;10.50;99.90;;;;;;8328333;28;20209;-68
2022/12/31 07:23:41;;;;;;;1.17;0.90;;;10.60;99.90;;;;;;8321780;28;20189;-68
2022/12/31 07:28:19;;;;;;;2.07;1.50;;;10.70;99.90;;;;;;8319202;28;20185;-68
2022/12/31 07:32:48;;;;;;;1.73;1.20;;;10.70;99.90;;;;;;8321741;28;20220;-68
2022/12/31 07:36:51;;;;;;;1.33;1.17;;;10.70;99.90;;;;;;8323568;28;20197;-68
2022/12/31 07:40:52;;;;;;;1.30;1.00;;;10.70;99.90;;;;;;8326327;28;20367;-68
2022/12/31 07:45:06;;;;;;;2.10;1.30;;;10.70;99.90;;;;;;8324350;28;20768;-69
2022/12/31 07:49:10;;;;;;;2.73;1.50;;;10.70;99.90;;;;;;8324080;28;20197;-70
2022/12/31 07:53:11;;;;;;;2.30;1.53;;;10.70;99.90;;;;;;8316552;28;20254;-72
2022/12/31 07:57:14;;;;;;;1.80;1.30;;;10.70;99.90;;;;;;8316783;28;20189;-71
2022/12/31 08:01:21;;;;;;;2.77;1.30;;;10.80;99.90;;;;;;8323183;28;20214;-73
2022/12/31 08:05:40;;;;;;;1.40;0.80;;;11.10;99.90;;;;;;8329567;28;20259;-71
2022/12/31 08:10:06;;;;;;;1.30;0.90;;;11.30;99.90;;;;;;8330515;28;20189;-70
2022/12/31 08:14:12;;;;;;;2.07;0.90;;;11.60;99.90;;;;;;8333408;28;20243;-70
2022/12/31 08:18:13;;;;;;;1.20;1.07;;;11.90;99.90;;;;;;8332242;28;21280;-70
2022/12/31 08:22:40;;;;;;;1.00;0.87;;;12.00;38.30;;;;;;8326983;28;20209;-70
2022/12/31 08:27:09;;;;;;;1.33;0.93;;;12.30;1.00;;;;;;8327341;28;20195;-72
2022/12/31 08:31:17;;;;;;;1.23;0.90;;;12.40;1.00;;;;;;8325924;28;20186;-70
2022/12/31 08:35:36;;;;;;;2.00;1.17;;;12.60;1.00;;;;;;8324626;28;20264;-72
2022/12/31 08:40:04;;;;;;;2.20;0.97;;;12.70;1.00;;;;;;8303340;28;20222;-70
2022/12/31 08:44:31;;;;;;;1.30;0.90;;;12.80;1.00;;;;;;8295929;28;20187;-70
2022/12/31 08:48:40;;;;;;;1.17;0.70;;;12.80;1.00;;;;;;8297598;28;20183;-71
2022/12/31 08:52:41;;;;;;;2.20;0.60;;;13.00;99.90;;;;;;8290694;28;20184;-70
2022/12/31 08:57:06;;;;;;;1.23;0.70;;;13.20;99.90;;;;;;8301448;28;20276;-69
2022/12/31 09:01:08;;;;;;;1.10;0.60;;;13.30;99.90;;;;;;8296259;28;20662;-69
2022/12/31 09:05:15;;;;;;;1.10;0.73;;;13.60;99.90;;;;;;8296555;28;20179;-71
2022/12/31 09:09:29;;;;;;;0.93;0.80;;;13.80;99.90;;;;;;8298359;28;20190;-69
2022/12/31 09:13:55;;;;;;;1.10;0.80;;;14.10;99.90;;;;;;8295689;28;20190;-70
2022/12/31 09:17:56;;;;;;;0.93;0.60;;;14.30;99.90;;;;;;8297383;28;20190;-72
2022/12/31 09:21:57;;;;;;;0.60;0.50;;;14.40;99.90;;;;;;8293186;28;20236;-72
2022/12/31 09:26:18;;;;;;;1.03;0.73;;;14.40;99.90;;;;;;8293480;28;20174;-70
2022/12/31 09:30:19;;;;;;;1.50;0.67;;;14.50;99.90;;;;;;8296015;28;20183;-72
2022/12/31 09:34:30;;;;;;;0.90;0.77;;;14.60;99.90;;;;;;8295416;28;20305;-69
2022/12/31 09:39:07;;;;;;;2.20;0.80;;;14.70;99.90;;;;;;8301389;28;20282;-72
2022/12/31 09:43:38;;;;;;;0.87;0.57;;;14.70;99.90;;;;;;8290759;28;20236;-69
2022/12/31 09:48:01;;;;;;;1.40;0.80;;;14.80;99.90;;;;;;8287580;28;20182;-71
2022/12/31 09:52:14;;;;;;;1.00;0.70;;;14.80;99.90;;;;;;8300417;28;20194;-70
2022/12/31 09:56:25;;;;;;;0.93;0.53;;;14.90;99.90;;;;;;8310673;28;20349;-71
2022/12/31 10:00:32;;;;;;;0.73;0.57;;;15.10;99.90;;;;;;8296206;28;20585;-68
2022/12/31 10:05:08;;;;;;;1.80;0.70;;;15.20;99.90;;;;;;8287996;28;20191;-72
2022/12/31 10:09:46;;;;;;;1.33;0.50;;;15.30;99.90;;;;;;8282575;28;20255;-71
2022/12/31 10:14:18;;;;;;;0.73;0.60;;;15.40;99.90;;;;;;8311081;28;20191;-71
2022/12/31 10:18:30;;;;;;;1.77;0.77;;;15.40;99.90;;;;;;8296561;28;20187;-71
2022/12/31 10:22:37;;;;;;;1.97;0.80;;;15.50;99.90;;;;;;8293121;28;20714;-70
2022/12/31 10:26:47;;;;;;;1.50;0.67;;;15.50;99.90;;;;;;8305976;28;20609;-72
2022/12/31 10:31:30;;;;;;;1.57;0.60;;;15.50;99.90;;;;;;8300273;28;20194;-68
2022/12/31 10:35:52;;;;;;;1.53;0.80;;;15.40;99.90;;;;;;8293367;28;20336;-71
2022/12/31 10:40:18;;;;;;;1.37;0.80;;;15.50;99.90;;;;;;8291422;28;20218;-71
2022/12/31 10:44:40;;;;;;;0.83;0.53;;;15.50;99.90;;;;;;8291339;28;20187;-70
2022/12/31 10:49:15;;;;;;;1.00;0.73;;;15.50;99.90;;;;;;8299858;28;20427;-70
2022/12/31 10:53:59;;;;;;;1.27;0.97;;;15.60;99.90;;;;;;8293502;28;20197;-71
2022/12/31 10:58:35;;;;;;;1.00;0.90;;;15.60;99.90;;;;;;8283271;28;20223;-71
2022/12/31 11:02:39;;;;;;;1.40;0.60;;;15.80;99.90;;;;;;8293066;28;20202;-71
2022/12/31 11:06:59;;;;;;;1.37;0.80;;;15.80;99.90;;;;;;8306763;28;20194;-71
2022/12/31 11:11:26;;;;;;;1.33;0.77;;;15.90;99.90;;;;;;8294819;28;20179;-70
2022/12/31 11:16:00;;;;;;;1.63;0.80;;;16.00;99.90;;;;;;8292298;28;20179;-71
2022/12/31 11:20:19;;;;;;;2.57;0.80;;;16.10;99.90;;;;;;8292147;28;20630;-70
2022/12/31 11:24:52;;;;;;;1.13;0.60;;;16.20;99.90;;;;;;8291773;28;20198;-72
2022/12/31 11:29:02;;;;;;;2.40;0.70;;;16.30;99.90;;;;;;8302179;28;20508;-71
2022/12/31 11:33:15;;;;;;;1.43;0.57;;;16.40;99.90;;;;;;8307710;28;20211;-70
2022/12/31 11:37:38;;;;;;;1.73;0.60;;;16.40;99.90;;;;;;8299204;28;20245;-69
2022/12/31 11:41:44;;;;;;;1.07;0.50;;;16.40;99.90;;;;;;8301880;28;20518;-71
2022/12/31 11:46:29;;;;;;;3.67;0.90;;;16.50;99.90;;;;;;8300854;28;20186;-70
2022/12/31 11:50:48;;;;;;;1.17;0.50;;;16.60;99.90;;;;;;8251771;28;20219;-71
2022/12/31 11:55:12;;;;;;;1.73;1.00;;;16.60;99.90;;;;;;8295966;28;20182;-70
2022/12/31 11:59:14;;;;;;;2.30;0.60;;;16.60;99.90;;;;;;8310418;28;20213;-71
2022/12/31 12:03:15;;;;;;;2.67;0.90;;;16.70;99.90;;;;;;8295488;28;20183;-70
2022/12/31 12:07:16;;;;;;;1.87;1.00;;;16.80;99.90;;;;;;8291177;28;20595;-70
2022/12/31 12:11:24;;;;;;;2.27;0.93;;;16.80;99.90;;;;;;8306972;28;20189;-72
2022/12/31 12:15:34;;;;;;;1.70;1.00;;;16.80;99.90;;;;;;8293963;28;20224;-71
2022/12/31 12:19:42;;;;;;;4.00;1.30;;;16.70;99.90;;;;;;8296330;28;20239;-71
2022/12/31 12:24:02;;;;;;;12.70;2.70;;;16.70;99.90;;;;;;8291933;28;20175;-69
2022/12/31 12:28:23;;;;;;;1.67;0.97;;;16.70;99.90;;;;;;8292058;28;20183;-71
2022/12/31 12:32:27;;;;;;;2.33;1.00;;;16.50;99.90;;;;;;8290260;28;20195;-69
2022/12/31 12:36:28;;;;;;;3.43;1.00;;;16.30;99.90;;;;;;8309033;28;20297;-71
2022/12/31 12:40:31;;;;;;;6.60;5.00;;;16.20;99.90;;;;;;8291270;28;20233;-71
2022/12/31 12:44:34;;;;;;;5.27;1.10;;;16.20;99.90;;;;;;8298908;28;20220;-70
2022/12/31 12:48:41;;;;;;;1.60;1.00;;;16.10;99.90;;;;;;8297910;28;20191;-71
2022/12/31 12:53:00;;;;;;;2.57;1.27;;;16.10;99.90;;;;;;8293365;28;20181;-69
2022/12/31 12:57:14;;;;;;;1.63;1.07;;;16.00;99.90;;;;;;8294158;28;20872;-70
2022/12/31 13:01:32;;;;;;;2.47;1.40;;;16.00;99.90;;;;;;8296584;28;20214;-69
2022/12/31 13:06:04;;;;;;;2.90;1.10;;;16.00;99.90;;;;;;8291708;28;20190;-71
2022/12/31 13:10:30;;;;;;;1.10;0.80;;;16.00;99.90;;;;;;8295115;28;20191;-71
2022/12/31 13:14:37;;;;;;;1.40;1.00;;;15.90;99.90;;;;;;8297162;28;20213;-70
2022/12/31 13:18:47;;;;;;;2.93;1.30;;;15.90;99.90;;;;;;8313435;28;20194;-69
2022/12/31 13:23:02;;;;;;;1.30;0.97;;;15.90;99.90;;;;;;8296626;28;20183;-70
2022/12/31 13:27:29;;;;;;;4.23;3.20;;;15.90;99.90;;;;;;8308174;28;20436;-70
2022/12/31 13:31:35;;;;;;;1.83;1.20;;;15.90;99.90;;;;;;8299626;28;20224;-71
2022/12/31 13:35:49;;;;;;;1.80;0.90;;;15.90;99.90;;;;;;8294680;28;20219;-70
2022/12/31 13:39:58;;;;;;;2.03;1.00;;;15.80;99.90;;;;;;8289709;28;20215;-70
2022/12/31 13:44:28;;;;;;;1.60;0.90;;;15.80;99.90;;;;;;8292654;28;20183;-70
2022/12/31 13:48:53;;;;;;;2.57;1.43;;;15.80;99.90;;;;;;8297111;28;20180;-70
2022/12/31 13:53:27;;;;;;;2.37;0.90;;;15.80;99.90;;;;;;8291065;28;20194;-69
2022/12/31 13:57:43;;;;;;;1.47;1.10;;;15.80;99.90;;;;;;8291923;28;20195;-70
2022/12/31 14:02:09;;;;;;;1.17;0.97;;;15.70;99.90;;;;;;8301851;28;20253;-70
2022/12/31 14:06:23;;;;;;;2.20;1.00;;;15.60;99.90;;;;;;8293537;28;20262;-71
2022/12/31 14:10:50;;;;;;;5.13;1.33;;;15.50;99.90;;;;;;8297610;28;20191;-69
2022/12/31 14:15:27;;;;;;;2.03;1.30;;;15.50;99.90;;;;;;8290352;28;20218;-71
2022/12/31 14:19:37;;;;;;;1.87;1.20;;;15.60;99.90;;;;;;8299906;28;20211;-70
2022/12/31 14:23:57;;;;;;;1.93;1.17;;;15.60;99.90;;;;;;8297076;28;20192;-71
2022/12/31 14:28:01;;;;;;;2.13;1.17;;;15.50;99.90;;;;;;8291374;28;20185;-70
2022/12/31 14:32:16;;;;;;;2.50;1.07;;;15.40;99.90;;;;;;8292303;28;20199;-70
2022/12/31 14:36:52;;;;;;;2.33;1.27;;;15.40;99.90;;;;;;8289687;28;20209;-70
2022/12/31 14:41:14;;;;;;;3.83;1.40;;;15.40;99.90;;;;;;8284606;28;20217;-70
2022/12/31 14:45:27;;;;;;;1.70;1.00;;;15.40;99.90;;;;;;8305880;28;20195;-70
2022/12/31 14:49:50;;;;;;;2.10;1.10;;;15.40;99.90;;;;;;8294838;28;20290;-70
2022/12/31 14:53:53;;;;;;;2.53;1.40;;;15.30;99.90;;;;;;8294321;28;20269;-70
2022/12/31 14:57:57;;;;;;;1.93;0.90;;;15.20;99.90;;;;;;8307346;28;20231;-70
2022/12/31 15:01:58;;;;;;;1.63;1.00;;;15.20;99.90;;;;;;8340425;28;20201;-70
2022/12/31 15:06:13;;;;;;;1.67;0.90;;;15.20;99.90;;;;;;8325851;28;20465;-70
2022/12/31 15:10:25;;;;;;;1.90;1.23;;;15.10;99.90;;;;;;8320650;28;20198;-71
2022/12/31 15:14:55;;;;;;;1.63;1.00;;;15.10;99.90;;;;;;8325080;28;20208;-71
2022/12/31 15:19:22;;;;;;;1.90;1.27;;;15.10;99.90;;;;;;8320846;28;20182;-70
2022/12/31 15:23:35;;;;;;;2.93;1.33;;;15.10;99.90;;;;;;8296315;28;20207;-71
2022/12/31 15:27:41;;;;;;;4.03;1.67;;;15.10;99.90;;;;;;8327168;28;20190;-69
2022/12/31 15:31:46;;;;;;;3.17;2.07;;;15.10;99.90;;;;;;8320145;28;20312;-68
2022/12/31 15:35:52;;;;;;;4.27;1.70;;;15.00;99.90;;;;;;8326657;28;20382;-68
2022/12/31 15:40:24;;;;;;;2.53;1.33;;;14.90;99.90;;;;;;8319038;28;20495;-69
2022/12/31 15:44:50;;;;;;;2.63;1.77;;;14.90;99.90;;;;;;8324769;28;20279;-69
2022/12/31 15:48:58;;;;;;;2.33;1.70;;;14.90;99.90;;;;;;8322486;28;20202;-69
2022/12/31 15:53:02;;;;;;;3.27;1.83;;;14.90;99.90;;;;;;8327955;28;20198;-69
2022/12/31 15:57:05;;;;;;;5.67;1.80;;;14.80;99.90;;;;;;8326210;28;20251;-68
2022/12/31 16:01:36;;;;;;;2.33;1.30;;;14.80;99.90;;;;;;8319200;28;20229;-68
2022/12/31 16:05:37;;;;;;;2.57;1.40;;;14.80;99.90;;;;;;8313929;28;20190;-68
2022/12/31 16:09:39;;;;;;;3.87;1.40;;;14.90;99.90;;;;;;8320308;28;20197;-69
2022/12/31 16:13:44;;;;;;;2.53;1.40;;;14.80;99.90;;;;;;8314930;28;20194;-68
2022/12/31 16:17:45;;;;;;;2.73;1.63;;;14.90;99.90;;;;;;8319927;28;20194;-69
2022/12/31 16:21:46;;;;;;;2.73;1.50;;;14.80;99.90;;;;;;8329336;28;20304;-69
2022/12/31 16:25:49;;;;;;;2.03;1.53;;;14.80;99.90;;;;;;8328038;28;20280;-68
2022/12/31 16:30:06;;;;;;;2.53;1.60;;;14.80;99.90;;;;;;8321899;28;20201;-69
2022/12/31 16:34:13;;;;;;;3.30;1.67;;;14.80;99.90;;;;;;8321508;28;20207;-69
2022/12/31 16:38:17;;;;;;;3.20;1.60;;;14.80;99.90;;;;;;8330434;28;20194;-69
2022/12/31 16:42:29;;;;;;;3.17;1.70;;;14.80;99.90;;;;;;8325566;28;20218;-69
2022/12/31 16:46:31;;;;;;;2.63;1.30;;;14.90;99.90;;;;;;8324354;28;20189;-69
2022/12/31 16:50:33;;;;;;;2.30;1.40;;;14.90;99.90;;;;;;8334473;28;20282;-70
2022/12/31 16:54:39;;;;;;;3.40;1.57;;;14.80;99.90;;;;;;8321806;28;20186;-68
2022/12/31 16:58:43;;;;;;;2.03;1.10;;;14.80;99.90;;;;;;8323977;28;20225;-69
2022/12/31 17:03:08;;;;;;;4.07;1.40;;;14.80;99.90;;;;;;8321685;28;20665;-69
2022/12/31 17:07:34;;;;;;;2.57;1.27;;;14.80;99.90;;;;;;8315573;28;20198;-70
2022/12/31 17:11:41;;;;;;;2.53;1.30;;;14.80;99.90;;;;;;8321627;28;20186;-69
2022/12/31 17:15:43;;;;;;;3.87;1.27;;;14.70;99.90;;;;;;8326725;28;20190;-69
2022/12/31 17:19:47;;;;;;;2.50;1.30;;;14.70;99.90;;;;;;8323693;28;20210;-69
2022/12/31 17:23:54;;;;;;;2.30;1.40;;;14.70;99.90;;;;;;8322515;28;20259;-69
2022/12/31 17:28:19;;;;;;;4.00;1.87;;;14.70;99.90;;;;;;8324993;28;20247;-67
2022/12/31 17:32:36;;;;;;;2.40;1.70;;;14.60;99.90;;;;;;8334369;28;20198;-68
2022/12/31 17:36:37;;;;;;;2.63;1.57;;;14.60;99.90;;;;;;8326465;28;20202;-69
2022/12/31 17:40:40;;;;;;;2.43;1.60;;;14.60;99.90;;;;;;8324344;28;20202;-69
2022/12/31 17:44:43;;;;;;;2.93;1.80;;;14.60;99.90;;;;;;8324304;28;20267;-68
2022/12/31 17:48:48;;;;;;;6.60;2.30;;;14.60;99.90;;;;;;8327083;28;20179;-69
2022/12/31 17:52:51;;;;;;;3.10;2.10;;;14.50;99.90;;;;;;8330118;28;20197;-69
2022/12/31 17:56:52;;;;;;;5.70;1.90;;;14.50;99.90;;;;;;8329330;28;20186;-69
2022/12/31 18:00:53;;;;;;;4.57;1.60;;;14.50;99.90;;;;;;8328009;28;20704;-69
2022/12/31 18:04:54;;;;;;;2.63;1.53;;;14.40;99.90;;;;;;8310538;28;20223;-68
2022/12/31 18:08:55;;;;;;;3.83;1.70;;;14.40;99.90;;;;;;8329193;28;20214;-68
2022/12/31 18:12:57;;;;;;;4.70;1.93;;;14.40;99.90;;;;;;8323675;28;20643;-68
2022/12/31 18:16:59;;;;;;;2.70;1.60;;;14.30;99.90;;;;;;8317076;28;20183;-68
2022/12/31 18:21:06;;;;;;;3.43;1.63;;;14.40;99.90;;;;;;8328719;28;20207;-68
2022/12/31 18:25:11;;;;;;;3.40;1.70;;;14.40;99.90;;;;;;8322718;28;20634;-68
2022/12/31 18:29:17;;;;;;;2.77;1.60;;;14.30;99.90;;;;;;8324539;28;20186;-68
2022/12/31 18:33:21;;;;;;;2.40;1.40;;;14.30;99.90;;;;;;8340491;28;20214;-67
2022/12/31 18:37:27;;;;;;;2.50;1.67;;;14.30;99.90;;;;;;8324537;28;20224;-69
2022/12/31 18:41:48;;;;;;;3.30;1.70;;;14.40;99.90;;;;;;8326112;28;20218;-68
2022/12/31 18:45:50;;;;;;;2.77;1.60;;;14.50;99.90;;;;;;8325796;28;20195;-68
2022/12/31 18:49:51;;;;;;;3.20;1.67;;;14.60;99.90;;;;;;8326122;28;20490;-68
2022/12/31 18:53:52;;;;;;;2.30;1.40;;;14.60;99.90;;;;;;8318739;28;20238;-68
2022/12/31 18:57:53;;;;;;;1.73;1.30;;;14.60;99.90;;;;;;8325252;28;20209;-68
2022/12/31 19:01:54;;;;;;;2.67;1.50;;;14.80;99.90;;;;;;8318861;28;20202;-69
2022/12/31 19:05:54;;;;;;;2.60;1.20;;;14.80;99.90;;;;;;8320638;28;20208;-69
2022/12/31 19:09:55;;;;;;;2.63;1.50;;;14.90;99.90;;;;;;8322990;28;20189;-69
2022/12/31 19:13:56;;;;;;;2.13;1.43;;;15.10;99.90;;;;;;8321772;28;20178;-68
2022/12/31 19:17:57;;;;;;;3.20;1.33;;;15.20;99.90;;;;;;8326333;28;20227;-68
2022/12/31 19:21:58;;;;;;;1.60;1.00;;;15.20;99.90;;;;;;8319316;28;20277;-69
2022/12/31 19:25:59;;;;;;;2.50;1.30;;;15.20;99.90;;;;;;8325257;28;20178;-68
2022/12/31 19:30:00;;;;;;;4.80;1.27;;;15.10;99.90;;;;;;8317746;28;20181;-69
2022/12/31 19:34:00;;;;;;;1.50;1.37;;;15.00;99.90;;;;;;8318607;28;20294;-68
2022/12/31 19:38:01;;;;;;;2.30;1.33;;;15.00;99.90;;;;;;8313506;28;20649;-69
2022/12/31 19:42:02;;;;;;;2.80;1.60;;;15.00;99.90;;;;;;8321654;28;20214;-68
2022/12/31 19:46:03;;;;;;;2.20;1.40;;;14.90;99.90;;;;;;8317864;28;20186;-68
2022/12/31 19:50:04;;;;;;;2.93;1.17;;;14.80;99.90;;;;;;8320232;28;20197;-68
2022/12/31 19:54:06;;;;;;;4.10;1.60;;;14.70;99.90;;;;;;8316677;28;20226;-68
2022/12/31 19:58:11;;;;;;;3.00;1.53;;;14.70;99.90;;;;;;8331647;28;20559;-68
2022/12/31 20:02:11;;;;;;;3.87;1.43;;;14.70;99.90;;;;;;8323412;28;20260;-69
2022/12/31 20:06:13;;;;;;;1.97;1.30;;;14.70;99.90;;;;;;8331472;28;20186;-69
2022/12/31 20:10:14;;;;;;;2.70;1.30;;;14.70;99.90;;;;;;8327476;28;20181;-68
2022/12/31 20:14:15;;;;;;;2.17;1.30;;;14.80;99.90;;;;;;8321724;28;20280;-68
2022/12/31 20:18:19;;;;;;;1.97;1.20;;;14.80;99.90;;;;;;8321200;28;20553;-68
2022/12/31 20:22:20;;;;;;;2.37;1.07;;;14.80;99.90;;;;;;8323009;28;20252;-68
2022/12/31 20:26:22;;;;;;;2.23;1.30;;;14.80;99.90;;;;;;8329802;28;20186;-68
2022/12/31 20:30:24;;;;;;;1.40;1.00;;;14.80;99.90;;;;;;8326280;28;20190;-67
2022/12/31 20:34:25;;;;;;;2.00;1.27;;;14.70;99.90;;;;;;8322756;28;20208;-68
2022/12/31 20:38:27;;;;;;;1.63;1.10;;;14.70;99.90;;;;;;8325459;28;20221;-68
2022/12/31 20:42:27;;;;;;;2.60;1.27;;;14.70;99.90;;;;;;8326091;28;20209;-68
2022/12/31 20:46:29;;;;;;;2.37;1.00;;;14.70;99.90;;;;;;8330002;28;20190;-67
2022/12/31 20:50:30;;;;;;;1.70;1.33;;;14.80;99.90;;;;;;8319357;28;20186;-68
2022/12/31 20:54:31;;;;;;;1.93;1.20;;;14.80;99.90;;;;;;8323824;28;20193;-67
2022/12/31 20:58:33;;;;;;;2.73;0.80;;;14.90;99.90;;;;;;8321707;28;20186;-69
2022/12/31 21:02:34;;;;;;;1.30;0.90;;;14.90;99.90;;;;;;8325647;28;20259;-68
2022/12/31 21:06:35;;;;;;;1.67;1.10;;;14.90;99.90;;;;;;8319283;28;20179;-69
2022/12/31 21:10:35;;;;;;;2.37;1.10;;;14.90;99.90;;;;;;8322585;28;20255;-69
2022/12/31 21:14:36;;;;;;;2.03;0.90;;;14.80;99.90;;;;;;8335369;28;20197;-67
2022/12/31 21:18:37;;;;;;;2.20;1.40;;;14.70;99.90;;;;;;8326333;28;20182;-67
2022/12/31 21:22:38;;;;;;;2.23;1.17;;;14.60;99.90;;;;;;8323744;28;20286;-68
2022/12/31 21:26:39;;;;;;;2.50;1.30;;;14.60;99.90;;;;;;8318097;28;20517;-67
2022/12/31 21:30:40;;;;;;;1.70;1.10;;;14.60;99.90;;;;;;8325794;28;20221;-67
2022/12/31 21:34:41;;;;;;;1.63;1.10;;;14.60;99.90;;;;;;8322339;28;20284;-69
2022/12/31 21:38:42;;;;;;;2.33;1.60;;;14.60;99.90;;;;;;8332663;28;20478;-68
2022/12/31 21:42:43;;;;;;;4.13;1.13;;;14.60;99.90;;;;;;8327248;28;20220;-69
2022/12/31 21:46:44;;;;;;;1.83;0.80;;;14.60;99.90;;;;;;8334167;28;20194;-67
2022/12/31 21:50:47;;;;;;;3.57;1.73;;;14.60;99.90;;;;;;8323809;28;20209;-69
2022/12/31 22:03:26;;;;;;;1.67;1.23;;;14.60;99.90;;;;;;8325511;28;20216;-68
2022/12/31 22:07:27;;;;;;;2.00;1.00;;;14.70;99.90;;;;;;8325050;28;20214;-68
2022/12/31 22:11:28;;;;;;;2.97;1.13;;;14.70;99.90;;;;;;8314855;28;20193;-69
2022/12/31 22:15:29;;;;;;;1.43;0.80;;;14.80;99.90;;;;;;8324662;28;20701;-68
2022/12/31 22:19:30;;;;;;;1.93;0.90;;;14.90;99.90;;;;;;8321258;28;20210;-69